Time,TemperatureF,DewpointF,PressureIn,WindDirection,WindDirectionDegrees,WindSpeedMPH,WindSpeedGustMPH,Humidity,HourlyPrecipIn,Conditions,Clouds,dailyrainin,SoftwareType,DateUTC
2013-04-16 00:00:00,31.7,31.0,30.35,ESE,120,0.0,0.0,95,0.00,,,0.02,weatherlink.com 1.10,2013-04-16 07:00:00,
2013-04-16 00:15:00,31.6,30.0,30.35,ESE,120,0.0,0.0,95,0.00,,,0.02,weatherlink.com 1.10,2013-04-16 07:15:00,
2013-04-16 00:30:00,31.2,30.0,30.35,ESE,120,0.0,0.0,95,0.00,,,0.02,weatherlink.com 1.10,2013-04-16 07:30:00,
2013-04-16 00:45:00,31.0,30.0,30.36,ESE,120,0.0,0.0,95,0.00,,,0.02,weatherlink.com 1.10,2013-04-16 07:45:00,
2013-04-16 01:01:00,30.7,30.0,30.36,ESE,120,0.0,0.0,95,0.00,,,0.02,weatherlink.com 1.10,2013-04-16 08:01:00,
2013-04-16 01:16:00,30.9,30.0,30.37,ESE,120,0.0,0.0,96,0.00,,,0.02,weatherlink.com 1.10,2013-04-16 08:16:00,
2013-04-16 01:31:00,31.2,30.0,30.37,ESE,120,0.0,0.0,96,0.00,,,0.02,weatherlink.com 1.10,2013-04-16 08:31:00,
2013-04-16 01:46:00,31.6,31.0,30.37,ESE,120,0.0,0.0,96,0.00,,,0.02,weatherlink.com 1.10,2013-04-16 08:46:00,
2013-04-16 02:01:00,31.8,31.0,30.37,ESE,120,0.0,0.0,96,0.00,,,0.02,weatherlink.com 1.10,2013-04-16 09:01:00,
2013-04-16 02:16:00,31.9,31.0,30.38,ESE,120,0.0,0.0,96,0.00,,,0.02,weatherlink.com 1.10,2013-04-16 09:16:00,
2013-04-16 02:31:00,32.1,31.0,30.37,ESE,120,0.0,0.0,96,0.00,,,0.02,weatherlink.com 1.10,2013-04-16 09:31:00,
2013-04-16 02:46:00,32.5,32.0,30.38,ESE,120,0.0,0.0,97,0.00,,,0.02,weatherlink.com 1.10,2013-04-16 09:46:00,
2013-04-16 03:01:00,32.7,32.0,30.38,ESE,120,0.0,0.0,96,0.00,,,0.02,weatherlink.com 1.10,2013-04-16 10:01:00,
2013-04-16 03:16:00,32.9,32.0,30.38,ESE,120,0.0,0.0,96,0.00,,,0.02,weatherlink.com 1.10,2013-04-16 10:16:00,
2013-04-16 03:31:00,32.9,32.0,30.38,ESE,120,0.0,0.0,96,0.00,,,0.00,weatherlink.com 1.10,2013-04-16 10:31:00,
2013-04-16 04:01:00,32.7,32.0,30.39,ESE,120,0.0,0.0,96,0.00,,,0.00,weatherlink.com 1.10,2013-04-16 11:01:00,
2013-04-16 04:16:00,32.5,32.0,30.39,ESE,120,0.0,0.0,96,0.00,,,0.00,weatherlink.com 1.10,2013-04-16 11:16:00,
2013-04-16 04:31:00,32.0,31.0,30.40,ESE,120,0.0,0.0,96,0.00,,,0.00,weatherlink.com 1.10,2013-04-16 11:31:00,
2013-04-16 04:46:00,31.6,31.0,30.40,ESE,120,0.0,0.0,96,0.00,,,0.00,weatherlink.com 1.10,2013-04-16 11:46:00,
2013-04-16 05:01:00,31.6,31.0,30.41,ESE,120,0.0,0.0,96,0.00,,,0.00,weatherlink.com 1.10,2013-04-16 12:01:00,
2013-04-16 05:17:00,31.8,31.0,30.41,ESE,120,0.0,0.0,96,0.00,,,0.00,weatherlink.com 1.10,2013-04-16 12:17:00,
2013-04-16 05:32:00,32.0,31.0,30.42,ESE,120,0.0,0.0,97,0.00,,,0.00,weatherlink.com 1.10,2013-04-16 12:32:00,
2013-04-16 05:47:00,32.4,32.0,30.42,ESE,120,0.0,0.0,97,0.00,,,0.00,weatherlink.com 1.10,2013-04-16 12:47:00,
2013-04-16 06:02:00,32.5,32.0,30.43,ESE,120,0.0,0.0,97,0.00,,,0.00,weatherlink.com 1.10,2013-04-16 13:02:00,
2013-04-16 06:17:00,32.8,32.0,30.44,ESE,120,0.0,0.0,97,0.00,,,0.00,weatherlink.com 1.10,2013-04-16 13:17:00,
2013-04-16 06:32:00,32.9,32.0,30.45,ESE,120,0.0,0.0,97,0.00,,,0.00,weatherlink.com 1.10,2013-04-16 13:32:00,
2013-04-16 06:47:00,33.1,32.0,30.45,ESE,120,0.0,0.0,97,0.00,,,0.00,weatherlink.com 1.10,2013-04-16 13:47:00,
2013-04-16 07:02:00,33.3,33.0,30.46,ESE,120,0.0,0.0,97,0.00,,,0.00,weatherlink.com 1.10,2013-04-16 14:02:00,
2013-04-16 07:17:00,33.6,33.0,30.46,ESE,120,0.0,0.0,97,0.00,,,0.00,weatherlink.com 1.10,2013-04-16 14:17:00,
2013-04-16 07:32:00,34.1,33.0,30.47,ESE,120,0.0,0.0,97,0.00,,,0.00,weatherlink.com 1.10,2013-04-16 14:32:00,
2013-04-16 07:47:00,34.5,34.0,30.48,ESE,120,0.0,0.0,97,0.00,,,0.00,weatherlink.com 1.10,2013-04-16 14:47:00,
2013-04-16 08:02:00,35.1,34.0,30.48,ESE,120,0.0,0.0,97,0.00,,,0.00,weatherlink.com 1.10,2013-04-16 15:02:00,
2013-04-16 08:17:00,35.6,35.0,30.49,ESE,120,0.0,0.0,96,0.00,,,0.00,weatherlink.com 1.10,2013-04-16 15:17:00,
2013-04-16 08:32:00,36.2,35.0,30.49,SE,128,0.0,0.0,96,0.00,,,0.00,weatherlink.com 1.10,2013-04-16 15:32:00,
2013-04-16 08:47:00,36.3,35.0,30.48,SE,129,0.0,0.0,93,0.00,,,0.00,weatherlink.com 1.10,2013-04-16 15:47:00,
2013-04-16 09:02:00,37.3,35.0,30.48,SSE,151,0.0,1.0,90,0.00,,,0.00,weatherlink.com 1.10,2013-04-16 16:02:00,
2013-04-16 09:17:00,37.5,34.0,30.48,SE,143,0.0,0.0,88,0.00,,,0.00,weatherlink.com 1.10,2013-04-16 16:17:00,
2013-04-16 09:32:00,37.4,34.0,30.48,SE,143,0.0,0.0,87,0.00,,,0.00,weatherlink.com 1.10,2013-04-16 16:32:00,
2013-04-16 09:47:00,37.6,34.0,30.48,SE,143,0.0,0.0,86,0.00,,,0.00,weatherlink.com 1.10,2013-04-16 16:47:00,
2013-04-16 10:02:00,38.2,34.0,30.48,SE,143,0.0,0.0,84,0.00,,,0.00,weatherlink.com 1.10,2013-04-16 17:02:00,
2013-04-16 10:17:00,39.1,34.0,30.48,SSE,150,0.0,1.0,83,0.00,,,0.00,weatherlink.com 1.10,2013-04-16 17:17:00,
2013-04-16 10:32:00,42.1,35.0,30.47,East,96,1.0,2.0,76,0.00,,,0.00,weatherlink.com 1.10,2013-04-16 17:32:00,
2013-04-16 10:47:00,43.4,33.0,30.47,SSE,154,1.0,2.0,67,0.00,,,0.00,weatherlink.com 1.10,2013-04-16 17:47:00,
2013-04-16 11:03:00,44.3,30.0,30.47,SW,218,1.0,3.0,58,0.00,,,0.00,weatherlink.com 1.10,2013-04-16 18:03:00,
2013-04-16 11:18:00,45.9,30.0,30.46,SE,128,1.0,2.0,55,0.00,,,0.00,weatherlink.com 1.10,2013-04-16 18:18:00,
2013-04-16 11:34:00,45.9,30.0,30.46,NE,55,1.0,3.0,54,0.00,,,0.00,weatherlink.com 1.10,2013-04-16 18:34:00,
2013-04-16 11:48:00,46.5,30.0,30.46,SE,140,0.0,3.0,54,0.00,,,0.00,weatherlink.com 1.10,2013-04-16 18:48:00,
2013-04-16 12:03:00,45.9,27.0,30.46,SW,222,0.0,5.0,48,0.00,,,0.00,weatherlink.com 1.10,2013-04-16 19:03:00,
2013-04-16 12:18:00,47.0,26.0,30.45,SSW,194,0.0,2.0,45,0.00,,,0.00,weatherlink.com 1.10,2013-04-16 19:18:00,
2013-04-16 12:33:00,46.4,26.0,30.46,SSE,151,0.0,0.0,45,0.00,,,0.00,weatherlink.com 1.10,2013-04-16 19:33:00,
2013-04-16 12:48:00,45.3,24.0,30.45,East,96,0.0,2.0,43,0.00,,,0.00,weatherlink.com 1.10,2013-04-16 19:48:00,
2013-04-16 13:03:00,45.7,28.0,30.45,SSE,159,0.0,0.0,50,0.00,,,0.00,weatherlink.com 1.10,2013-04-16 20:03:00,
2013-04-16 13:18:00,46.3,26.0,30.45,NW,324,2.0,3.0,45,0.00,,,0.00,weatherlink.com 1.10,2013-04-16 20:18:00,
2013-04-16 13:33:00,45.7,25.0,30.45,East,96,1.0,6.0,45,0.00,,,0.00,weatherlink.com 1.10,2013-04-16 20:33:00,
2013-04-16 13:48:00,45.9,27.0,30.45,SSE,163,0.0,2.0,48,0.00,,,0.00,weatherlink.com 1.10,2013-04-16 20:48:00,
2013-04-16 14:03:00,46.4,24.0,30.45,ESE,122,0.0,3.0,42,0.00,,,0.00,weatherlink.com 1.10,2013-04-16 21:03:00,
2013-04-16 14:18:00,46.4,25.0,30.45,SSE,160,0.0,4.0,43,0.00,,,0.00,weatherlink.com 1.10,2013-04-16 21:18:00,
2013-04-16 14:33:00,47.1,25.0,30.45,NNW,347,0.0,3.0,42,0.00,,,0.00,weatherlink.com 1.10,2013-04-16 21:33:00,
2013-04-16 14:48:00,47.8,25.0,30.45,NNW,345,0.0,3.0,41,0.00,,,0.00,weatherlink.com 1.10,2013-04-16 21:48:00,
2013-04-16 15:03:00,48.1,25.0,30.45,SE,131,0.0,4.0,40,0.00,,,0.00,weatherlink.com 1.10,2013-04-16 22:03:00,
2013-04-16 15:33:00,49.3,23.0,30.46,SSE,159,0.0,2.0,36,0.00,,,0.00,weatherlink.com 1.10,2013-04-16 22:33:00,
2013-04-16 15:48:00,47.5,26.0,30.46,South,180,0.0,5.0,44,0.00,,,0.00,weatherlink.com 1.10,2013-04-16 22:48:00,
2013-04-16 16:03:00,46.7,26.0,30.46,NW,324,0.0,2.0,45,0.00,,,0.00,weatherlink.com 1.10,2013-04-16 23:03:00,
2013-04-16 16:18:00,46.7,26.0,30.45,NW,319,0.0,1.0,45,0.00,,,0.00,weatherlink.com 1.10,2013-04-16 23:18:00,
2013-04-16 16:33:00,47.5,23.0,30.45,NNW,340,0.0,4.0,39,0.00,,,0.00,weatherlink.com 1.10,2013-04-16 23:33:00,
2013-04-16 16:48:00,47.7,25.0,30.45,NNW,330,0.0,3.0,41,0.00,,,0.00,weatherlink.com 1.10,2013-04-16 23:48:00,
2013-04-16 17:03:00,47.2,24.0,30.45,ENE,63,0.0,2.0,41,0.00,,,0.00,weatherlink.com 1.10,2013-04-17 00:03:00,
2013-04-16 17:18:00,48.1,25.0,30.45,ESE,103,1.0,4.0,40,0.00,,,0.00,weatherlink.com 1.10,2013-04-17 00:18:00,
2013-04-16 17:33:00,48.0,25.0,30.46,SE,132,0.0,1.0,40,0.00,,,0.00,weatherlink.com 1.10,2013-04-17 00:33:00,
2013-04-16 17:48:00,47.5,26.0,30.46,SE,145,0.0,5.0,44,0.00,,,0.00,weatherlink.com 1.10,2013-04-17 00:48:00,
2013-04-16 18:03:00,46.5,25.0,30.46,ESE,109,0.0,2.0,44,0.00,,,0.00,weatherlink.com 1.10,2013-04-17 01:03:00,
2013-04-16 18:18:00,46.2,27.0,30.46,ESE,120,0.0,0.0,48,0.00,,,0.00,weatherlink.com 1.10,2013-04-17 01:18:00,
2013-04-16 18:33:00,45.9,27.0,30.47,SE,143,0.0,0.0,48,0.00,,,0.00,weatherlink.com 1.10,2013-04-17 01:33:00,
2013-04-16 18:48:00,45.6,30.0,30.47,SE,143,0.0,0.0,54,0.00,,,0.00,weatherlink.com 1.10,2013-04-17 01:48:00,
2013-04-16 19:03:00,45.1,30.0,30.47,SE,143,0.0,0.0,57,0.00,,,0.00,weatherlink.com 1.10,2013-04-17 02:03:00,
2013-04-16 19:18:00,44.4,33.0,30.47,SE,142,0.0,0.0,64,0.00,,,0.00,weatherlink.com 1.10,2013-04-17 02:18:00,
2013-04-16 19:33:00,43.3,33.0,30.48,SE,142,0.0,0.0,68,0.00,,,0.00,weatherlink.com 1.10,2013-04-17 02:33:00,
2013-04-16 19:48:00,42.4,34.0,30.48,SE,142,0.0,0.0,72,0.00,,,0.00,weatherlink.com 1.10,2013-04-17 02:48:00,
2013-04-16 20:03:00,41.3,34.0,30.48,SE,143,0.0,0.0,74,0.00,,,0.00,weatherlink.com 1.10,2013-04-17 03:03:00,
2013-04-16 20:18:00,40.2,34.0,30.50,SE,143,0.0,0.0,77,0.00,,,0.00,weatherlink.com 1.10,2013-04-17 03:18:00,
2013-04-16 20:33:00,39.1,33.0,30.51,SE,143,0.0,0.0,79,0.00,,,0.00,weatherlink.com 1.10,2013-04-17 03:33:00,
2013-04-16 20:48:00,38.6,33.0,30.51,SE,143,0.0,0.0,80,0.00,,,0.00,weatherlink.com 1.10,2013-04-17 03:48:00,
2013-04-16 21:03:00,37.7,32.0,30.52,SE,143,0.0,0.0,80,0.00,,,0.00,weatherlink.com 1.10,2013-04-17 04:03:00,
2013-04-16 21:18:00,36.1,31.0,30.52,SE,142,0.0,0.0,82,0.00,,,0.00,weatherlink.com 1.10,2013-04-17 04:18:00,
2013-04-16 21:33:00,35.0,31.0,30.53,SE,142,0.0,0.0,84,0.00,,,0.00,weatherlink.com 1.10,2013-04-17 04:33:00,
2013-04-16 21:48:00,33.9,30.0,30.54,SE,142,0.0,0.0,86,0.00,,,0.00,weatherlink.com 1.10,2013-04-17 04:48:00,
2013-04-16 22:03:00,33.0,30.0,30.54,SE,143,0.0,0.0,87,0.00,,,0.00,weatherlink.com 1.10,2013-04-17 05:03:00,
2013-04-16 22:18:00,32.2,29.0,30.54,SE,143,0.0,0.0,88,0.00,,,0.00,weatherlink.com 1.10,2013-04-17 05:18:00,
2013-04-16 22:33:00,31.3,29.0,30.55,SE,143,0.0,0.0,89,0.00,,,0.00,weatherlink.com 1.10,2013-04-17 05:33:00,
2013-04-16 22:48:00,30.8,28.0,30.55,SE,143,0.0,0.0,90,0.00,,,0.00,weatherlink.com 1.10,2013-04-17 05:48:00,
2013-04-16 23:03:00,30.2,28.0,30.55,SE,142,0.0,0.0,90,0.00,,,0.00,weatherlink.com 1.10,2013-04-17 06:03:00,
2013-04-16 23:19:00,29.8,28.0,30.56,SE,143,0.0,0.0,91,0.00,,,0.00,weatherlink.com 1.10,2013-04-17 06:19:00,
2013-04-16 23:34:00,29.2,27.0,30.56,SE,142,0.0,0.0,91,0.00,,,0.00,weatherlink.com 1.10,2013-04-17 06:34:00,
2013-04-16 23:49:00,28.9,27.0,30.56,SE,143,0.0,0.0,92,0.00,,,0.00,weatherlink.com 1.10,2013-04-17 06:49:00,